sensor_id;sensor_type;location;lat;lon;timestamp;temperature;humidity
40077;DHT22;25777;47.824;18.982;2023-03-04T00:01:37;1.70;99.90
40077;DHT22;25777;47.824;18.982;2023-03-04T00:04:16;1.60;99.90
40077;DHT22;25777;47.824;18.982;2023-03-04T00:06:52;1.40;99.90
40077;DHT22;25777;47.824;18.982;2023-03-04T00:09:42;1.40;99.90
40077;DHT22;25777;47.824;18.982;2023-03-04T00:12:10;1.30;99.90
40077;DHT22;25777;47.824;18.982;2023-03-04T00:14:37;1.30;99.90
40077;DHT22;25777;47.824;18.982;2023-03-04T00:17:03;1.40;99.90
40077;DHT22;25777;47.824;18.982;2023-03-04T00:19:41;1.30;99.90
40077;DHT22;25777;47.824;18.982;2023-03-04T00:22:08;1.30;99.90
40077;DHT22;25777;47.824;18.982;2023-03-04T00:24:35;1.30;99.90
40077;DHT22;25777;47.824;18.982;2023-03-04T00:27:02;1.20;99.90
40077;DHT22;25777;47.824;18.982;2023-03-04T00:29:28;1.00;99.90
40077;DHT22;25777;47.824;18.982;2023-03-04T00:31:57;1.00;99.90
40077;DHT22;25777;47.824;18.982;2023-03-04T00:34:23;0.90;99.90
40077;DHT22;25777;47.824;18.982;2023-03-04T00:36:50;0.80;99.90
40077;DHT22;25777;47.824;18.982;2023-03-04T00:39:23;0.80;99.90
40077;DHT22;25777;47.824;18.982;2023-03-04T00:41:51;0.70;99.90
40077;DHT22;25777;47.824;18.982;2023-03-04T00:44:32;0.70;99.90
40077;DHT22;25777;47.824;18.982;2023-03-04T00:47:09;0.60;99.90
40077;DHT22;25777;47.824;18.982;2023-03-04T00:49:36;0.70;99.90
40077;DHT22;25777;47.824;18.982;2023-03-04T00:52:07;0.70;99.90
40077;DHT22;25777;47.824;18.982;2023-03-04T00:54:41;0.80;99.90
40077;DHT22;25777;47.824;18.982;2023-03-04T00:57:13;0.80;99.90
40077;DHT22;25777;47.824;18.982;2023-03-04T00:59:39;0.70;99.90
40077;DHT22;25777;47.824;18.982;2023-03-04T01:02:07;0.70;99.90
40077;DHT22;25777;47.824;18.982;2023-03-04T01:04:34;0.50;99.90
40077;DHT22;25777;47.824;18.982;2023-03-04T01:07:01;0.30;99.90
40077;DHT22;25777;47.824;18.982;2023-03-04T01:09:27;0.20;99.90
40077;DHT22;25777;47.824;18.982;2023-03-04T01:11:55;0.10;99.90
40077;DHT22;25777;47.824;18.982;2023-03-04T01:14:23;0.10;99.90
40077;DHT22;25777;47.824;18.982;2023-03-04T01:16:49;0.00;99.90
40077;DHT22;25777;47.824;18.982;2023-03-04T01:19:15;-0.20;99.90
40077;DHT22;25777;47.824;18.982;2023-03-04T01:21:43;-0.30;99.90
40077;DHT22;25777;47.824;18.982;2023-03-04T01:24:20;-0.10;99.90
40077;DHT22;25777;47.824;18.982;2023-03-04T01:26:47;-0.10;99.90
40077;DHT22;25777;47.824;18.982;2023-03-04T01:29:28;0.60;99.90
40077;DHT22;25777;47.824;18.982;2023-03-04T01:32:20;0.80;99.90
40077;DHT22;25777;47.824;18.982;2023-03-04T01:34:45;0.30;99.90
40077;DHT22;25777;47.824;18.982;2023-03-04T01:37:13;0.00;99.90
40077;DHT22;25777;47.824;18.982;2023-03-04T01:39:40;-0.20;99.90
40077;DHT22;25777;47.824;18.982;2023-03-04T01:42:17;-0.20;99.90
40077;DHT22;25777;47.824;18.982;2023-03-04T01:44:45;-0.10;99.90
40077;DHT22;25777;47.824;18.982;2023-03-04T01:47:16;-0.10;99.90
40077;DHT22;25777;47.824;18.982;2023-03-04T01:49:43;-0.20;99.90
40077;DHT22;25777;47.824;18.982;2023-03-04T01:52:15;-0.30;99.90
40077;DHT22;25777;47.824;18.982;2023-03-04T01:54:44;-0.30;99.90
40077;DHT22;25777;47.824;18.982;2023-03-04T01:57:22;-0.10;99.90
40077;DHT22;25777;47.824;18.982;2023-03-04T02:00:13;-0.10;99.90
40077;DHT22;25777;47.824;18.982;2023-03-04T02:02:43;-0.10;99.90
40077;DHT22;25777;47.824;18.982;2023-03-04T02:05:22;-0.30;99.90
40077;DHT22;25777;47.824;18.982;2023-03-04T02:07:52;-0.30;99.90
40077;DHT22;25777;47.824;18.982;2023-03-04T02:10:26;-0.30;99.90
40077;DHT22;25777;47.824;18.982;2023-03-04T02:13:03;0.10;99.90
40077;DHT22;25777;47.824;18.982;2023-03-04T02:15:32;0.10;99.90
40077;DHT22;25777;47.824;18.982;2023-03-04T02:18:00;0.20;99.90
40077;DHT22;25777;47.824;18.982;2023-03-04T02:23:38;0.20;99.90
40077;DHT22;25777;47.824;18.982;2023-03-04T02:28:38;0.20;99.90
40077;DHT22;25777;47.824;18.982;2023-03-04T02:31:26;0.30;99.90
40077;DHT22;25777;47.824;18.982;2023-03-04T02:33:56;0.20;99.90
40077;DHT22;25777;47.824;18.982;2023-03-04T02:36:22;0.20;99.90
40077;DHT22;25777;47.824;18.982;2023-03-04T02:38:54;0.20;99.90
40077;DHT22;25777;47.824;18.982;2023-03-04T02:41:29;0.30;99.90
40077;DHT22;25777;47.824;18.982;2023-03-04T02:43:58;0.20;99.90
40077;DHT22;25777;47.824;18.982;2023-03-04T02:46:26;0.10;99.90
40077;DHT22;25777;47.824;18.982;2023-03-04T02:48:53;0.10;99.90
40077;DHT22;25777;47.824;18.982;2023-03-04T02:51:28;0.10;99.90
40077;DHT22;25777;47.824;18.982;2023-03-04T02:53:54;0.10;99.90
40077;DHT22;25777;47.824;18.982;2023-03-04T02:56:22;0.00;99.90
40077;DHT22;25777;47.824;18.982;2023-03-04T02:58:48;0.00;99.90
40077;DHT22;25777;47.824;18.982;2023-03-04T03:01:14;0.00;99.90
40077;DHT22;25777;47.824;18.982;2023-03-04T03:03:40;0.00;99.90
40077;DHT22;25777;47.824;18.982;2023-03-04T03:06:21;-0.10;99.90
40077;DHT22;25777;47.824;18.982;2023-03-04T03:08:55;-0.10;99.90
40077;DHT22;25777;47.824;18.982;2023-03-04T03:11:29;0.00;99.90
40077;DHT22;25777;47.824;18.982;2023-03-04T03:13:56;0.10;99.90
40077;DHT22;25777;47.824;18.982;2023-03-04T03:16:24;0.20;99.90
40077;DHT22;25777;47.824;18.982;2023-03-04T03:18:50;0.30;99.90
40077;DHT22;25777;47.824;18.982;2023-03-04T03:21:17;0.20;99.90
40077;DHT22;25777;47.824;18.982;2023-03-04T03:23:44;0.20;99.90
40077;DHT22;25777;47.824;18.982;2023-03-04T03:26:19;0.10;99.90
40077;DHT22;25777;47.824;18.982;2023-03-04T03:28:55;0.20;99.90
40077;DHT22;25777;47.824;18.982;2023-03-04T03:31:30;0.10;99.90
40077;DHT22;25777;47.824;18.982;2023-03-04T03:34:02;0.10;99.90
40077;DHT22;25777;47.824;18.982;2023-03-04T03:36:30;0.00;99.90
40077;DHT22;25777;47.824;18.982;2023-03-04T03:38:57;0.00;99.90
40077;DHT22;25777;47.824;18.982;2023-03-04T03:41:39;0.00;99.90
40077;DHT22;25777;47.824;18.982;2023-03-04T03:44:05;0.00;99.90
40077;DHT22;25777;47.824;18.982;2023-03-04T03:46:33;0.00;99.90
40077;DHT22;25777;47.824;18.982;2023-03-04T03:49:11;-0.10;99.90
40077;DHT22;25777;47.824;18.982;2023-03-04T03:51:40;-0.30;99.90
40077;DHT22;25777;47.824;18.982;2023-03-04T03:54:05;-0.30;99.90
40077;DHT22;25777;47.824;18.982;2023-03-04T03:56:33;-0.50;99.90
40077;DHT22;25777;47.824;18.982;2023-03-04T03:58:59;-0.50;99.90
40077;DHT22;25777;47.824;18.982;2023-03-04T04:01:41;-0.60;99.90
40077;DHT22;25777;47.824;18.982;2023-03-04T04:04:07;-0.70;99.90
40077;DHT22;25777;47.824;18.982;2023-03-04T04:06:34;-0.70;99.90
40077;DHT22;25777;47.824;18.982;2023-03-04T04:09:04;-0.80;99.90
40077;DHT22;25777;47.824;18.982;2023-03-04T04:11:32;-0.80;99.90
40077;DHT22;25777;47.824;18.982;2023-03-04T04:14:12;-0.90;99.90
40077;DHT22;25777;47.824;18.982;2023-03-04T04:16:38;-1.00;99.90
40077;DHT22;25777;47.824;18.982;2023-03-04T04:19:05;-1.10;99.90
40077;DHT22;25777;47.824;18.982;2023-03-04T04:21:37;-1.00;99.90
40077;DHT22;25777;47.824;18.982;2023-03-04T04:24:09;-0.90;99.90
40077;DHT22;25777;47.824;18.982;2023-03-04T04:26:42;-0.80;99.90
40077;DHT22;25777;47.824;18.982;2023-03-04T04:29:21;-0.60;99.90
40077;DHT22;25777;47.824;18.982;2023-03-04T04:31:48;-0.60;99.90
40077;DHT22;25777;47.824;18.982;2023-03-04T04:34:17;-0.60;99.90
40077;DHT22;25777;47.824;18.982;2023-03-04T04:36:43;-0.60;99.90
40077;DHT22;25777;47.824;18.982;2023-03-04T04:39:10;-0.70;99.90
40077;DHT22;25777;47.824;18.982;2023-03-04T04:41:39;-0.70;99.90
40077;DHT22;25777;47.824;18.982;2023-03-04T04:44:06;-0.70;99.90
40077;DHT22;25777;47.824;18.982;2023-03-04T04:46:36;-0.70;99.90
40077;DHT22;25777;47.824;18.982;2023-03-04T04:49:11;-0.90;99.90
40077;DHT22;25777;47.824;18.982;2023-03-04T04:51:38;-1.00;99.90
40077;DHT22;25777;47.824;18.982;2023-03-04T04:54:05;-0.80;99.90
40077;DHT22;25777;47.824;18.982;2023-03-04T04:56:47;-0.90;99.90
40077;DHT22;25777;47.824;18.982;2023-03-04T04:59:19;-1.00;99.90
40077;DHT22;25777;47.824;18.982;2023-03-04T05:01:46;-1.10;99.90
40077;DHT22;25777;47.824;18.982;2023-03-04T05:04:12;-1.00;99.90
40077;DHT22;25777;47.824;18.982;2023-03-04T05:06:50;-0.90;99.90
40077;DHT22;25777;47.824;18.982;2023-03-04T05:09:19;-0.80;99.90
40077;DHT22;25777;47.824;18.982;2023-03-04T05:11:48;-0.60;99.90
40077;DHT22;25777;47.824;18.982;2023-03-04T05:14:22;-0.70;99.90
40077;DHT22;25777;47.824;18.982;2023-03-04T05:16:50;-1.00;99.90
40077;DHT22;25777;47.824;18.982;2023-03-04T05:19:18;-0.90;99.90
40077;DHT22;25777;47.824;18.982;2023-03-04T05:21:55;-1.00;99.90
40077;DHT22;25777;47.824;18.982;2023-03-04T05:24:39;-1.00;99.90
40077;DHT22;25777;47.824;18.982;2023-03-04T05:27:05;-1.00;99.90
40077;DHT22;25777;47.824;18.982;2023-03-04T05:29:32;-0.70;99.90
40077;DHT22;25777;47.824;18.982;2023-03-04T05:31:59;-0.70;99.90
40077;DHT22;25777;47.824;18.982;2023-03-04T05:34:48;-0.90;99.90
40077;DHT22;25777;47.824;18.982;2023-03-04T05:37:14;-0.90;99.90
40077;DHT22;25777;47.824;18.982;2023-03-04T05:39:41;-1.00;99.90
40077;DHT22;25777;47.824;18.982;2023-03-04T05:42:14;-0.80;99.90
40077;DHT22;25777;47.824;18.982;2023-03-04T05:44:40;-0.80;99.90
40077;DHT22;25777;47.824;18.982;2023-03-04T05:47:06;-0.70;99.90
40077;DHT22;25777;47.824;18.982;2023-03-04T05:49:59;-0.70;99.90
40077;DHT22;25777;47.824;18.982;2023-03-04T05:52:27;-0.60;99.90
40077;DHT22;25777;47.824;18.982;2023-03-04T05:54:54;-0.50;99.90
40077;DHT22;25777;47.824;18.982;2023-03-04T05:57:29;-0.40;99.90
40077;DHT22;25777;47.824;18.982;2023-03-04T05:59:58;-0.20;99.90
40077;DHT22;25777;47.824;18.982;2023-03-04T06:02:24;-0.20;99.90
40077;DHT22;25777;47.824;18.982;2023-03-04T06:04:53;-0.10;99.90
40077;DHT22;25777;47.824;18.982;2023-03-04T06:07:19;-0.10;99.90
40077;DHT22;25777;47.824;18.982;2023-03-04T06:10:07;0.00;99.90
40077;DHT22;25777;47.824;18.982;2023-03-04T06:12:33;0.00;99.90
40077;DHT22;25777;47.824;18.982;2023-03-04T06:15:16;0.10;99.90
40077;DHT22;25777;47.824;18.982;2023-03-04T06:17:54;0.20;99.90
40077;DHT22;25777;47.824;18.982;2023-03-04T06:20:21;0.20;99.90
40077;DHT22;25777;47.824;18.982;2023-03-04T06:22:47;0.20;99.90
40077;DHT22;25777;47.824;18.982;2023-03-04T06:25:28;0.30;99.90
40077;DHT22;25777;47.824;18.982;2023-03-04T06:28:00;0.30;99.90
40077;DHT22;25777;47.824;18.982;2023-03-04T06:30:26;0.40;99.90
40077;DHT22;25777;47.824;18.982;2023-03-04T06:32:55;0.50;99.90
40077;DHT22;25777;47.824;18.982;2023-03-04T06:35:24;0.50;99.90
40077;DHT22;25777;47.824;18.982;2023-03-04T06:37:50;0.60;99.90
40077;DHT22;25777;47.824;18.982;2023-03-04T06:40:20;0.70;99.90
40077;DHT22;25777;47.824;18.982;2023-03-04T06:42:46;0.70;99.90
40077;DHT22;25777;47.824;18.982;2023-03-04T06:45:11;0.80;99.90
40077;DHT22;25777;47.824;18.982;2023-03-04T06:47:41;0.90;99.90
40077;DHT22;25777;47.824;18.982;2023-03-04T06:50:19;0.90;99.90
40077;DHT22;25777;47.824;18.982;2023-03-04T06:52:55;1.00;99.90
40077;DHT22;25777;47.824;18.982;2023-03-04T06:55:24;1.00;99.90
40077;DHT22;25777;47.824;18.982;2023-03-04T06:58:00;1.10;99.90
40077;DHT22;25777;47.824;18.982;2023-03-04T07:00:26;1.20;99.90
40077;DHT22;25777;47.824;18.982;2023-03-04T07:02:58;1.30;99.90
40077;DHT22;25777;47.824;18.982;2023-03-04T07:05:24;1.40;99.90
40077;DHT22;25777;47.824;18.982;2023-03-04T07:08:00;1.50;99.90
40077;DHT22;25777;47.824;18.982;2023-03-04T07:10:33;1.60;99.90
40077;DHT22;25777;47.824;18.982;2023-03-04T07:13:00;1.80;99.90
40077;DHT22;25777;47.824;18.982;2023-03-04T07:15:26;1.80;99.90
40077;DHT22;25777;47.824;18.982;2023-03-04T07:17:55;1.90;99.90
40077;DHT22;25777;47.824;18.982;2023-03-04T07:20:44;2.00;99.90
40077;DHT22;25777;47.824;18.982;2023-03-04T07:23:14;2.10;99.90
40077;DHT22;25777;47.824;18.982;2023-03-04T07:25:48;2.30;99.90
40077;DHT22;25777;47.824;18.982;2023-03-04T07:28:15;2.40;99.90
40077;DHT22;25777;47.824;18.982;2023-03-04T07:30:41;2.50;99.90
40077;DHT22;25777;47.824;18.982;2023-03-04T07:33:12;2.60;99.90
40077;DHT22;25777;47.824;18.982;2023-03-04T07:35:42;2.70;99.90
40077;DHT22;25777;47.824;18.982;2023-03-04T07:38:11;2.80;99.90
40077;DHT22;25777;47.824;18.982;2023-03-04T07:40:44;2.90;99.90
40077;DHT22;25777;47.824;18.982;2023-03-04T07:43:10;3.10;99.90
40077;DHT22;25777;47.824;18.982;2023-03-04T07:45:44;3.10;99.90
40077;DHT22;25777;47.824;18.982;2023-03-04T07:48:19;3.20;99.90
40077;DHT22;25777;47.824;18.982;2023-03-04T07:50:48;3.00;99.90
40077;DHT22;25777;47.824;18.982;2023-03-04T07:53:14;3.70;99.90
40077;DHT22;25777;47.824;18.982;2023-03-04T07:55:40;3.80;99.90
40077;DHT22;25777;47.824;18.982;2023-03-04T07:58:08;3.90;99.20
40077;DHT22;25777;47.824;18.982;2023-03-04T08:00:36;3.90;98.80
40077;DHT22;25777;47.824;18.982;2023-03-04T08:03:04;4.00;98.90
40077;DHT22;25777;47.824;18.982;2023-03-04T08:05:30;4.20;98.00
40077;DHT22;25777;47.824;18.982;2023-03-04T08:08:03;4.30;97.50
40077;DHT22;25777;47.824;18.982;2023-03-04T08:10:32;4.50;97.60
40077;DHT22;25777;47.824;18.982;2023-03-04T08:12:58;4.70;96.30
40077;DHT22;25777;47.824;18.982;2023-03-04T08:15:24;4.90;95.90
40077;DHT22;25777;47.824;18.982;2023-03-04T08:17:52;5.00;95.00
40077;DHT22;25777;47.824;18.982;2023-03-04T08:20:22;5.10;94.40
40077;DHT22;25777;47.824;18.982;2023-03-04T08:22:48;5.10;93.90
40077;DHT22;25777;47.824;18.982;2023-03-04T08:25:42;5.50;93.60
40077;DHT22;25777;47.824;18.982;2023-03-04T08:28:11;5.50;92.40
40077;DHT22;25777;47.824;18.982;2023-03-04T08:30:52;5.80;92.70
40077;DHT22;25777;47.824;18.982;2023-03-04T08:33:20;5.80;91.40
40077;DHT22;25777;47.824;18.982;2023-03-04T08:35:52;5.80;91.30
40077;DHT22;25777;47.824;18.982;2023-03-04T08:38:18;6.00;91.20
40077;DHT22;25777;47.824;18.982;2023-03-04T08:40:58;6.10;91.70
40077;DHT22;25777;47.824;18.982;2023-03-04T08:43:30;6.40;90.90
40077;DHT22;25777;47.824;18.982;2023-03-04T08:45:56;6.80;90.00
40077;DHT22;25777;47.824;18.982;2023-03-04T08:48:23;6.80;88.60
40077;DHT22;25777;47.824;18.982;2023-03-04T08:50:49;6.90;87.80
40077;DHT22;25777;47.824;18.982;2023-03-04T08:53:26;6.90;87.80
40077;DHT22;25777;47.824;18.982;2023-03-04T08:55:55;7.20;86.10
40077;DHT22;25777;47.824;18.982;2023-03-04T08:58:21;7.10;86.00
40077;DHT22;25777;47.824;18.982;2023-03-04T09:00:51;7.30;86.00
40077;DHT22;25777;47.824;18.982;2023-03-04T09:03:22;7.80;84.10
40077;DHT22;25777;47.824;18.982;2023-03-04T09:05:48;7.70;82.10
40077;DHT22;25777;47.824;18.982;2023-03-04T09:08:16;8.00;83.30
40077;DHT22;25777;47.824;18.982;2023-03-04T09:11:01;8.30;81.50
40077;DHT22;25777;47.824;18.982;2023-03-04T09:13:39;8.00;78.30
40077;DHT22;25777;47.824;18.982;2023-03-04T09:16:13;8.30;79.20
40077;DHT22;25777;47.824;18.982;2023-03-04T09:18:40;8.50;79.10
40077;DHT22;25777;47.824;18.982;2023-03-04T09:21:10;8.80;75.80
40077;DHT22;25777;47.824;18.982;2023-03-04T09:23:38;8.90;76.40
40077;DHT22;25777;47.824;18.982;2023-03-04T09:26:22;8.70;76.20
40077;DHT22;25777;47.824;18.982;2023-03-04T09:28:51;9.00;75.20
40077;DHT22;25777;47.824;18.982;2023-03-04T09:31:17;9.10;73.10
40077;DHT22;25777;47.824;18.982;2023-03-04T09:34:00;9.20;74.00
40077;DHT22;25777;47.824;18.982;2023-03-04T09:36:28;9.40;71.20
40077;DHT22;25777;47.824;18.982;2023-03-04T09:38:58;9.60;70.70
40077;DHT22;25777;47.824;18.982;2023-03-04T09:41:39;9.20;72.90
40077;DHT22;25777;47.824;18.982;2023-03-04T09:44:14;9.40;70.20
40077;DHT22;25777;47.824;18.982;2023-03-04T09:46:48;8.90;70.00
40077;DHT22;25777;47.824;18.982;2023-03-04T09:49:19;8.70;71.40
40077;DHT22;25777;47.824;18.982;2023-03-04T09:52:09;8.90;72.20
40077;DHT22;25777;47.824;18.982;2023-03-04T09:58:06;9.70;70.80
40077;DHT22;25777;47.824;18.982;2023-03-04T10:00:45;9.70;70.80
40077;DHT22;25777;47.824;18.982;2023-03-04T10:03:15;9.70;70.10
40077;DHT22;25777;47.824;18.982;2023-03-04T10:06:03;10.30;69.20
40077;DHT22;25777;47.824;18.982;2023-03-04T10:08:51;10.90;68.10
40077;DHT22;25777;47.824;18.982;2023-03-04T10:11:43;9.90;67.80
40077;DHT22;25777;47.824;18.982;2023-03-04T10:14:32;10.10;67.90
40077;DHT22;25777;47.824;18.982;2023-03-04T10:17:13;10.50;67.50
40077;DHT22;25777;47.824;18.982;2023-03-04T10:23:01;10.20;68.30
40077;DHT22;25777;47.824;18.982;2023-03-04T10:25:34;10.70;67.10
40077;DHT22;25777;47.824;18.982;2023-03-04T10:28:11;10.70;67.20
40077;DHT22;25777;47.824;18.982;2023-03-04T10:30:50;10.60;66.60
40077;DHT22;25777;47.824;18.982;2023-03-04T10:33:39;10.90;65.60
40077;DHT22;25777;47.824;18.982;2023-03-04T10:39:16;10.90;65.20
40077;DHT22;25777;47.824;18.982;2023-03-04T10:41:54;10.20;66.30
40077;DHT22;25777;47.824;18.982;2023-03-04T10:44:22;10.10;65.20
40077;DHT22;25777;47.824;18.982;2023-03-04T10:46:48;10.30;67.10
40077;DHT22;25777;47.824;18.982;2023-03-04T10:49:17;10.80;63.90
40077;DHT22;25777;47.824;18.982;2023-03-04T10:51:50;10.90;63.50
40077;DHT22;25777;47.824;18.982;2023-03-04T10:54:46;10.10;63.80
40077;DHT22;25777;47.824;18.982;2023-03-04T10:57:19;10.40;64.70
40077;DHT22;25777;47.824;18.982;2023-03-04T10:59:57;10.60;64.80
40077;DHT22;25777;47.824;18.982;2023-03-04T11:02:44;10.80;63.40
40077;DHT22;25777;47.824;18.982;2023-03-04T11:05:24;10.80;64.40
40077;DHT22;25777;47.824;18.982;2023-03-04T11:07:59;11.10;64.40
40077;DHT22;25777;47.824;18.982;2023-03-04T11:10:43;10.80;64.20
40077;DHT22;25777;47.824;18.982;2023-03-04T11:13:24;11.10;63.60
40077;DHT22;25777;47.824;18.982;2023-03-04T11:18:51;11.50;62.40
40077;DHT22;25777;47.824;18.982;2023-03-04T11:21:21;11.00;62.20
40077;DHT22;25777;47.824;18.982;2023-03-04T11:24:16;10.60;63.80
40077;DHT22;25777;47.824;18.982;2023-03-04T11:27:12;10.10;65.10
40077;DHT22;25777;47.824;18.982;2023-03-04T11:32:50;10.60;64.60
40077;DHT22;25777;47.824;18.982;2023-03-04T11:35:27;10.90;63.30
40077;DHT22;25777;47.824;18.982;2023-03-04T11:43:44;10.60;62.30
40077;DHT22;25777;47.824;18.982;2023-03-04T11:55:15;11.40;59.70
40077;DHT22;25777;47.824;18.982;2023-03-04T12:00:50;10.80;60.60
40077;DHT22;25777;47.824;18.982;2023-03-04T12:13:00;11.10;57.80
40077;DHT22;25777;47.824;18.982;2023-03-04T12:21:15;10.70;58.30
40077;DHT22;25777;47.824;18.982;2023-03-04T12:31:49;10.70;57.70
40077;DHT22;25777;47.824;18.982;2023-03-04T12:46:10;10.90;55.50
40077;DHT22;25777;47.824;18.982;2023-03-04T12:51:38;11.30;55.50
40077;DHT22;25777;47.824;18.982;2023-03-04T12:54:50;11.20;55.70
40077;DHT22;25777;47.824;18.982;2023-03-04T12:57:23;11.50;54.10
40077;DHT22;25777;47.824;18.982;2023-03-04T12:59:53;11.40;52.20
40077;DHT22;25777;47.824;18.982;2023-03-04T13:10:49;11.50;51.90
40077;DHT22;25777;47.824;18.982;2023-03-04T13:13:43;11.50;51.40
40077;DHT22;25777;47.824;18.982;2023-03-04T13:16:53;11.50;51.20
40077;DHT22;25777;47.824;18.982;2023-03-04T13:25:31;11.40;50.00
40077;DHT22;25777;47.824;18.982;2023-03-04T13:37:00;11.10;53.50
40077;DHT22;25777;47.824;18.982;2023-03-04T13:39:29;11.10;53.70
40077;DHT22;25777;47.824;18.982;2023-03-04T13:41:55;10.90;52.40
40077;DHT22;25777;47.824;18.982;2023-03-04T13:47:21;11.60;53.30
40077;DHT22;25777;47.824;18.982;2023-03-04T13:50:24;11.60;52.10
40077;DHT22;25777;47.824;18.982;2023-03-04T13:52:52;11.40;50.90
40077;DHT22;25777;47.824;18.982;2023-03-04T13:55:39;11.40;53.60
40077;DHT22;25777;47.824;18.982;2023-03-04T13:58:22;11.20;52.60
40077;DHT22;25777;47.824;18.982;2023-03-04T14:00:52;10.80;53.80
40077;DHT22;25777;47.824;18.982;2023-03-04T14:03:25;10.70;53.40
40077;DHT22;25777;47.824;18.982;2023-03-04T14:06:27;10.40;54.80
40077;DHT22;25777;47.824;18.982;2023-03-04T14:09:08;10.60;54.90
40077;DHT22;25777;47.824;18.982;2023-03-04T14:11:41;10.50;54.70
40077;DHT22;25777;47.824;18.982;2023-03-04T14:14:26;10.10;54.90
40077;DHT22;25777;47.824;18.982;2023-03-04T14:17:03;9.90;56.20
40077;DHT22;25777;47.824;18.982;2023-03-04T14:19:42;9.60;56.90
40077;DHT22;25777;47.824;18.982;2023-03-04T14:25:01;9.70;57.50
40077;DHT22;25777;47.824;18.982;2023-03-04T14:27:33;9.60;56.40
40077;DHT22;25777;47.824;18.982;2023-03-04T14:30:21;9.50;57.40
40077;DHT22;25777;47.824;18.982;2023-03-04T14:32:59;9.40;57.60
40077;DHT22;25777;47.824;18.982;2023-03-04T14:35:30;9.50;57.60
40077;DHT22;25777;47.824;18.982;2023-03-04T14:40:33;9.20;58.60
40077;DHT22;25777;47.824;18.982;2023-03-04T14:43:05;9.20;58.20
40077;DHT22;25777;47.824;18.982;2023-03-04T14:45:33;9.10;58.30
40077;DHT22;25777;47.824;18.982;2023-03-04T14:48:37;9.10;58.60
40077;DHT22;25777;47.824;18.982;2023-03-04T14:51:41;8.90;58.10
40077;DHT22;25777;47.824;18.982;2023-03-04T14:56:58;8.70;57.90
40077;DHT22;25777;47.824;18.982;2023-03-04T14:59:29;8.70;57.00
40077;DHT22;25777;47.824;18.982;2023-03-04T15:08:03;8.50;56.00
40077;DHT22;25777;47.824;18.982;2023-03-04T15:11:01;8.50;55.90
40077;DHT22;25777;47.824;18.982;2023-03-04T15:13:46;8.50;56.70
40077;DHT22;25777;47.824;18.982;2023-03-04T15:16:16;8.50;56.10
40077;DHT22;25777;47.824;18.982;2023-03-04T15:19:04;8.30;56.60
40077;DHT22;25777;47.824;18.982;2023-03-04T15:21:40;8.30;57.30
40077;DHT22;25777;47.824;18.982;2023-03-04T15:24:08;8.30;57.90
40077;DHT22;25777;47.824;18.982;2023-03-04T15:26:43;8.20;57.60
40077;DHT22;25777;47.824;18.982;2023-03-04T15:29:19;8.20;58.60
40077;DHT22;25777;47.824;18.982;2023-03-04T15:31:47;8.10;58.60
40077;DHT22;25777;47.824;18.982;2023-03-04T15:34:15;8.00;58.60
40077;DHT22;25777;47.824;18.982;2023-03-04T15:36:48;8.10;58.70
40077;DHT22;25777;47.824;18.982;2023-03-04T15:39:16;8.10;60.10
40077;DHT22;25777;47.824;18.982;2023-03-04T15:41:43;8.00;59.20
40077;DHT22;25777;47.824;18.982;2023-03-04T15:44:23;7.90;59.80
40077;DHT22;25777;47.824;18.982;2023-03-04T15:46:50;7.90;59.30
40077;DHT22;25777;47.824;18.982;2023-03-04T15:49:18;7.90;59.50
40077;DHT22;25777;47.824;18.982;2023-03-04T15:51:47;7.80;59.60
40077;DHT22;25777;47.824;18.982;2023-03-04T15:54:14;7.80;60.20
40077;DHT22;25777;47.824;18.982;2023-03-04T15:56:53;7.80;59.30
40077;DHT22;25777;47.824;18.982;2023-03-04T15:59:26;7.70;60.10
40077;DHT22;25777;47.824;18.982;2023-03-04T16:01:52;7.70;60.00
40077;DHT22;25777;47.824;18.982;2023-03-04T16:04:18;7.60;61.90
40077;DHT22;25777;47.824;18.982;2023-03-04T16:06:45;7.50;61.90
40077;DHT22;25777;47.824;18.982;2023-03-04T16:09:30;7.40;61.90
40077;DHT22;25777;47.824;18.982;2023-03-04T16:12:07;7.30;63.20
40077;DHT22;25777;47.824;18.982;2023-03-04T16:14:34;7.30;62.60
40077;DHT22;25777;47.824;18.982;2023-03-04T16:17:06;7.40;62.20
40077;DHT22;25777;47.824;18.982;2023-03-04T16:19:32;7.30;62.60
40077;DHT22;25777;47.824;18.982;2023-03-04T16:22:23;7.30;64.40
40077;DHT22;25777;47.824;18.982;2023-03-04T16:24:50;7.30;62.30
40077;DHT22;25777;47.824;18.982;2023-03-04T16:27:17;7.30;62.20
40077;DHT22;25777;47.824;18.982;2023-03-04T16:29:51;7.30;63.50
40077;DHT22;25777;47.824;18.982;2023-03-04T16:32:17;7.10;64.60
40077;DHT22;25777;47.824;18.982;2023-03-04T16:34:46;6.90;65.60
40077;DHT22;25777;47.824;18.982;2023-03-04T16:37:17;6.60;68.20
40077;DHT22;25777;47.824;18.982;2023-03-04T16:39:48;6.50;67.10
40077;DHT22;25777;47.824;18.982;2023-03-04T16:42:15;6.90;65.30
40077;DHT22;25777;47.824;18.982;2023-03-04T16:44:45;6.70;66.20
40077;DHT22;25777;47.824;18.982;2023-03-04T16:47:13;6.60;66.30
40077;DHT22;25777;47.824;18.982;2023-03-04T16:49:40;6.40;68.50
40077;DHT22;25777;47.824;18.982;2023-03-04T16:52:07;6.30;68.50
40077;DHT22;25777;47.824;18.982;2023-03-04T16:54:41;6.20;69.80
40077;DHT22;25777;47.824;18.982;2023-03-04T16:57:07;6.20;69.20
40077;DHT22;25777;47.824;18.982;2023-03-04T16:59:36;6.20;68.70
40077;DHT22;25777;47.824;18.982;2023-03-04T17:02:10;6.20;69.30
40077;DHT22;25777;47.824;18.982;2023-03-04T17:04:37;6.20;69.00
40077;DHT22;25777;47.824;18.982;2023-03-04T17:07:11;6.00;71.10
40077;DHT22;25777;47.824;18.982;2023-03-04T17:09:38;5.90;71.40
40077;DHT22;25777;47.824;18.982;2023-03-04T17:12:06;6.00;70.90
40077;DHT22;25777;47.824;18.982;2023-03-04T17:14:34;5.90;71.60
40077;DHT22;25777;47.824;18.982;2023-03-04T17:17:02;5.70;71.50
40077;DHT22;25777;47.824;18.982;2023-03-04T17:19:28;5.80;71.80
40077;DHT22;25777;47.824;18.982;2023-03-04T17:21:57;5.80;71.90
40077;DHT22;25777;47.824;18.982;2023-03-04T17:24:25;5.80;72.00
40077;DHT22;25777;47.824;18.982;2023-03-04T17:26:59;5.80;72.50
40077;DHT22;25777;47.824;18.982;2023-03-04T17:29:27;5.70;72.60
40077;DHT22;25777;47.824;18.982;2023-03-04T17:32:05;5.60;72.90
40077;DHT22;25777;47.824;18.982;2023-03-04T17:34:32;5.50;73.70
40077;DHT22;25777;47.824;18.982;2023-03-04T17:36:59;5.40;74.60
40077;DHT22;25777;47.824;18.982;2023-03-04T17:39:39;5.20;75.20
40077;DHT22;25777;47.824;18.982;2023-03-04T17:42:20;5.10;75.70
40077;DHT22;25777;47.824;18.982;2023-03-04T17:44:54;5.00;75.50
40077;DHT22;25777;47.824;18.982;2023-03-04T17:47:20;5.00;75.30
40077;DHT22;25777;47.824;18.982;2023-03-04T17:49:47;4.90;75.90
40077;DHT22;25777;47.824;18.982;2023-03-04T17:52:13;4.90;75.70
40077;DHT22;25777;47.824;18.982;2023-03-04T17:54:40;4.80;76.90
40077;DHT22;25777;47.824;18.982;2023-03-04T17:57:16;4.70;77.40